sensor_id;sensor_type;location;lat;lon;timestamp;pressure;altitude;pressure_sealevel;temperature;humidity
56831;BME280;42713;42.676;23.352;2023-11-21T00:01:49;94605.94;;;5.83;70.80
56831;BME280;42713;42.676;23.352;2023-11-21T00:04:14;94603.34;;;5.83;70.62
56831;BME280;42713;42.676;23.352;2023-11-21T00:06:40;94606.97;;;5.82;71.08
56831;BME280;42713;42.676;23.352;2023-11-21T00:09:06;94605.16;;;5.83;70.52
56831;BME280;42713;42.676;23.352;2023-11-21T00:11:33;94611.38;;;5.82;70.20
56831;BME280;42713;42.676;23.352;2023-11-21T00:13:59;94605.16;;;5.83;71.16
56831;BME280;42713;42.676;23.352;2023-11-21T00:16:24;94602.78;;;5.81;70.89
56831;BME280;42713;42.676;23.352;2023-11-21T00:18:50;94614.38;;;5.79;70.46
56831;BME280;42713;42.676;23.352;2023-11-21T00:21:16;94608.81;;;5.75;70.20
56831;BME280;42713;42.676;23.352;2023-11-21T00:23:42;94609.09;;;5.67;69.82
56831;BME280;42713;42.676;23.352;2023-11-21T00:26:07;94610.28;;;5.71;69.66
56831;BME280;42713;42.676;23.352;2023-11-21T00:28:33;94603.25;;;5.71;70.47
56831;BME280;42713;42.676;23.352;2023-11-21T00:30:58;94604.44;;;5.75;69.96
56831;BME280;42713;42.676;23.352;2023-11-21T00:33:24;94593.47;;;5.73;69.68
56831;BME280;42713;42.676;23.352;2023-11-21T00:35:50;94601.84;;;5.75;69.62
56831;BME280;42713;42.676;23.352;2023-11-21T00:38:16;94595.06;;;5.74;69.15
56831;BME280;42713;42.676;23.352;2023-11-21T00:40:47;94609.41;;;5.77;70.25
56831;BME280;42713;42.676;23.352;2023-11-21T00:43:13;94600.84;;;5.76;70.48
56831;BME280;42713;42.676;23.352;2023-11-21T00:45:38;94605.66;;;5.73;71.46
56831;BME280;42713;42.676;23.352;2023-11-21T00:48:06;94608.59;;;5.58;71.89
56831;BME280;42713;42.676;23.352;2023-11-21T00:50:33;94604.59;;;5.55;72.55
56831;BME280;42713;42.676;23.352;2023-11-21T00:52:59;94606.63;;;5.53;72.13
56831;BME280;42713;42.676;23.352;2023-11-21T00:55:25;94610.25;;;5.52;72.31
56831;BME280;42713;42.676;23.352;2023-11-21T00:57:51;94598.53;;;5.43;72.49
56831;BME280;42713;42.676;23.352;2023-11-21T01:00:17;94594.16;;;5.37;72.55
56831;BME280;42713;42.676;23.352;2023-11-21T01:02:46;94598.34;;;5.38;72.42
56831;BME280;42713;42.676;23.352;2023-11-21T01:05:12;94590.78;;;5.36;72.81
56831;BME280;42713;42.676;23.352;2023-11-21T01:07:38;94590.06;;;5.29;72.42
56831;BME280;42713;42.676;23.352;2023-11-21T01:10:04;94593.06;;;5.26;72.27
56831;BME280;42713;42.676;23.352;2023-11-21T01:12:37;94590.88;;;5.23;72.31
56831;BME280;42713;42.676;23.352;2023-11-21T01:15:06;94592.69;;;5.22;72.27
56831;BME280;42713;42.676;23.352;2023-11-21T01:17:37;94582.94;;;5.18;72.39
56831;BME280;42713;42.676;23.352;2023-11-21T01:20:04;94586.31;;;5.18;72.29
56831;BME280;42713;42.676;23.352;2023-11-21T01:22:35;94594.38;;;5.10;72.74
56831;BME280;42713;42.676;23.352;2023-11-21T01:25:01;94591.41;;;5.06;73.68
56831;BME280;42713;42.676;23.352;2023-11-21T01:27:29;94590.59;;;5.06;73.28
56831;BME280;42713;42.676;23.352;2023-11-21T01:29:55;94591.03;;;5.03;72.29
56831;BME280;42713;42.676;23.352;2023-11-21T01:32:20;94585.84;;;5.03;73.37
56831;BME280;42713;42.676;23.352;2023-11-21T01:34:47;94587.47;;;4.97;72.17
56831;BME280;42713;42.676;23.352;2023-11-21T01:37:13;94580.91;;;4.94;72.74
56831;BME280;42713;42.676;23.352;2023-11-21T01:39:39;94581.94;;;4.87;72.52
56831;BME280;42713;42.676;23.352;2023-11-21T01:42:05;94588.78;;;4.81;73.25
56831;BME280;42713;42.676;23.352;2023-11-21T01:44:31;94594.75;;;4.81;73.46
56831;BME280;42713;42.676;23.352;2023-11-21T01:46:57;94596.97;;;4.78;73.42
56831;BME280;42713;42.676;23.352;2023-11-21T01:49:23;94597.56;;;4.80;73.35
56831;BME280;42713;42.676;23.352;2023-11-21T01:51:49;94581.78;;;4.81;73.27
56831;BME280;42713;42.676;23.352;2023-11-21T01:54:16;94573.63;;;4.78;73.53
56831;BME280;42713;42.676;23.352;2023-11-21T01:56:46;94575.38;;;4.84;73.07
56831;BME280;42713;42.676;23.352;2023-11-21T01:59:14;94581.59;;;4.83;73.75
56831;BME280;42713;42.676;23.352;2023-11-21T02:01:43;94587.59;;;4.77;73.53
56831;BME280;42713;42.676;23.352;2023-11-21T02:04:09;94585.44;;;4.74;72.95
56831;BME280;42713;42.676;23.352;2023-11-21T02:06:35;94583.25;;;4.71;73.12
56831;BME280;42713;42.676;23.352;2023-11-21T02:09:00;94589.44;;;4.70;73.14
56831;BME280;42713;42.676;23.352;2023-11-21T02:11:26;94585.09;;;4.63;73.53
56831;BME280;42713;42.676;23.352;2023-11-21T02:13:53;94583.13;;;4.59;73.72
56831;BME280;42713;42.676;23.352;2023-11-21T02:16:19;94588.09;;;4.60;73.68
56831;BME280;42713;42.676;23.352;2023-11-21T02:18:47;94588.69;;;4.62;74.02
56831;BME280;42713;42.676;23.352;2023-11-21T02:21:14;94586.88;;;4.63;73.94
56831;BME280;42713;42.676;23.352;2023-11-21T02:23:39;94580.69;;;4.64;74.85
56831;BME280;42713;42.676;23.352;2023-11-21T02:26:10;94577.94;;;4.59;74.33
56831;BME280;42713;42.676;23.352;2023-11-21T02:28:36;94573.94;;;4.56;74.19
56831;BME280;42713;42.676;23.352;2023-11-21T02:31:06;94572.94;;;4.57;74.31
56831;BME280;42713;42.676;23.352;2023-11-21T02:33:33;94573.16;;;4.56;74.25
56831;BME280;42713;42.676;23.352;2023-11-21T02:36:00;94577.56;;;4.55;74.07
56831;BME280;42713;42.676;23.352;2023-11-21T02:38:25;94573.38;;;4.54;74.35
56831;BME280;42713;42.676;23.352;2023-11-21T02:40:51;94570.78;;;4.54;74.24
56831;BME280;42713;42.676;23.352;2023-11-21T02:43:16;94572.16;;;4.57;74.41
56831;BME280;42713;42.676;23.352;2023-11-21T02:45:42;94567.97;;;4.56;73.94
56831;BME280;42713;42.676;23.352;2023-11-21T02:48:07;94578.19;;;4.50;74.12
56831;BME280;42713;42.676;23.352;2023-11-21T02:50:35;94573.56;;;4.52;74.66
56831;BME280;42713;42.676;23.352;2023-11-21T02:53:04;94571.97;;;4.51;74.65
56831;BME280;42713;42.676;23.352;2023-11-21T02:55:31;94574.75;;;4.50;74.18
56831;BME280;42713;42.676;23.352;2023-11-21T02:58:00;94571.38;;;4.49;74.33
56831;BME280;42713;42.676;23.352;2023-11-21T03:00:25;94582.75;;;4.55;74.29
56831;BME280;42713;42.676;23.352;2023-11-21T03:02:51;94578.56;;;4.54;73.81
56831;BME280;42713;42.676;23.352;2023-11-21T03:05:16;94565.78;;;4.52;74.46
56831;BME280;42713;42.676;23.352;2023-11-21T03:07:42;94570.56;;;4.56;74.41
56831;BME280;42713;42.676;23.352;2023-11-21T03:10:08;94568.97;;;4.55;74.67
56831;BME280;42713;42.676;23.352;2023-11-21T03:12:34;94568.00;;;4.49;74.70
56831;BME280;42713;42.676;23.352;2023-11-21T03:15:00;94574.38;;;4.46;74.94
56831;BME280;42713;42.676;23.352;2023-11-21T03:17:27;94575.19;;;4.47;74.19
56831;BME280;42713;42.676;23.352;2023-11-21T03:19:52;94560.44;;;4.41;74.03
56831;BME280;42713;42.676;23.352;2023-11-21T03:22:18;94584.78;;;4.40;74.19
56831;BME280;42713;42.676;23.352;2023-11-21T03:24:44;94579.22;;;4.36;74.08
56831;BME280;42713;42.676;23.352;2023-11-21T03:27:10;94576.66;;;4.29;74.67
56831;BME280;42713;42.676;23.352;2023-11-21T03:29:35;94586.25;;;4.29;74.78
56831;BME280;42713;42.676;23.352;2023-11-21T03:32:00;94584.28;;;4.24;74.54
56831;BME280;42713;42.676;23.352;2023-11-21T03:34:27;94589.63;;;4.23;75.58
56831;BME280;42713;42.676;23.352;2023-11-21T03:36:53;94590.47;;;4.16;75.12
56831;BME280;42713;42.676;23.352;2023-11-21T03:39:22;94587.88;;;4.16;75.36
56831;BME280;42713;42.676;23.352;2023-11-21T03:41:48;94584.50;;;4.16;75.79
56831;BME280;42713;42.676;23.352;2023-11-21T03:44:14;94585.88;;;4.18;76.03
56831;BME280;42713;42.676;23.352;2023-11-21T03:46:40;94582.28;;;4.19;76.19
56831;BME280;42713;42.676;23.352;2023-11-21T03:49:05;94569.34;;;4.19;75.94
56831;BME280;42713;42.676;23.352;2023-11-21T03:51:33;94563.16;;;4.20;75.01
56831;BME280;42713;42.676;23.352;2023-11-21T03:53:59;94558.75;;;4.21;75.78
56831;BME280;42713;42.676;23.352;2023-11-21T03:56:24;94557.75;;;4.22;75.90
56831;BME280;42713;42.676;23.352;2023-11-21T03:58:50;94549.59;;;4.18;75.59
56831;BME280;42713;42.676;23.352;2023-11-21T04:01:22;94555.56;;;4.19;75.51
56831;BME280;42713;42.676;23.352;2023-11-21T04:03:49;94568.13;;;4.22;75.77
56831;BME280;42713;42.676;23.352;2023-11-21T04:06:15;94554.78;;;4.18;76.07
56831;BME280;42713;42.676;23.352;2023-11-21T04:08:43;94552.78;;;4.20;75.86
56831;BME280;42713;42.676;23.352;2023-11-21T04:11:09;94561.97;;;4.16;75.93
56831;BME280;42713;42.676;23.352;2023-11-21T04:13:37;94556.78;;;4.16;75.84
56831;BME280;42713;42.676;23.352;2023-11-21T04:16:04;94547.03;;;4.12;76.02
56831;BME280;42713;42.676;23.352;2023-11-21T04:18:29;94548.84;;;4.11;76.27
56831;BME280;42713;42.676;23.352;2023-11-21T04:20:55;94552.41;;;4.10;76.17
56831;BME280;42713;42.676;23.352;2023-11-21T04:23:21;94563.97;;;4.08;76.16
56831;BME280;42713;42.676;23.352;2023-11-21T04:25:47;94548.84;;;4.04;76.68
56831;BME280;42713;42.676;23.352;2023-11-21T04:28:12;94548.63;;;4.06;76.34
56831;BME280;42713;42.676;23.352;2023-11-21T04:30:38;94548.47;;;4.01;76.13
56831;BME280;42713;42.676;23.352;2023-11-21T04:33:04;94555.84;;;3.97;76.69
56831;BME280;42713;42.676;23.352;2023-11-21T04:35:30;94547.50;;;3.95;76.36
56831;BME280;42713;42.676;23.352;2023-11-21T04:37:56;94557.88;;;3.88;76.54
56831;BME280;42713;42.676;23.352;2023-11-21T04:40:22;94557.47;;;3.92;76.61
56831;BME280;42713;42.676;23.352;2023-11-21T04:42:48;94548.09;;;3.91;77.03
56831;BME280;42713;42.676;23.352;2023-11-21T04:45:13;94558.84;;;3.94;76.96
56831;BME280;42713;42.676;23.352;2023-11-21T04:47:39;94554.84;;;3.98;77.52
56831;BME280;42713;42.676;23.352;2023-11-21T04:50:04;94550.88;;;3.96;76.91
56831;BME280;42713;42.676;23.352;2023-11-21T04:52:31;94554.91;;;3.85;77.16
56831;BME280;42713;42.676;23.352;2023-11-21T04:54:58;94563.06;;;3.82;76.54
56831;BME280;42713;42.676;23.352;2023-11-21T04:57:27;94552.50;;;3.83;76.64
56831;BME280;42713;42.676;23.352;2023-11-21T04:59:56;94558.88;;;3.87;76.71
56831;BME280;42713;42.676;23.352;2023-11-21T05:02:25;94554.09;;;3.84;77.32
56831;BME280;42713;42.676;23.352;2023-11-21T05:04:50;94556.28;;;3.81;77.07
56831;BME280;42713;42.676;23.352;2023-11-21T05:07:16;94564.28;;;3.79;77.10
56831;BME280;42713;42.676;23.352;2023-11-21T05:09:47;94564.47;;;3.78;78.09
56831;BME280;42713;42.676;23.352;2023-11-21T05:12:16;94570.25;;;3.80;77.16
56831;BME280;42713;42.676;23.352;2023-11-21T05:14:41;94557.88;;;3.82;77.25
56831;BME280;42713;42.676;23.352;2023-11-21T05:17:07;94547.31;;;3.83;77.59
56831;BME280;42713;42.676;23.352;2023-11-21T05:19:36;94552.69;;;3.82;78.09
56831;BME280;42713;42.676;23.352;2023-11-21T05:22:01;94555.88;;;3.84;77.04
56831;BME280;42713;42.676;23.352;2023-11-21T05:24:27;94547.53;;;3.82;77.15
56831;BME280;42713;42.676;23.352;2023-11-21T05:26:53;94558.09;;;3.87;76.66
56831;BME280;42713;42.676;23.352;2023-11-21T05:29:19;94553.69;;;3.87;77.19
56831;BME280;42713;42.676;23.352;2023-11-21T05:31:44;94570.81;;;3.88;77.46
56831;BME280;42713;42.676;23.352;2023-11-21T05:34:12;94569.03;;;3.89;76.96
56831;BME280;42713;42.676;23.352;2023-11-21T05:36:38;94572.66;;;3.81;77.60
56831;BME280;42713;42.676;23.352;2023-11-21T05:39:03;94573.44;;;3.82;78.01
56831;BME280;42713;42.676;23.352;2023-11-21T05:41:29;94568.63;;;3.85;76.94
56831;BME280;42713;42.676;23.352;2023-11-21T05:43:55;94573.63;;;3.87;77.06
56831;BME280;42713;42.676;23.352;2023-11-21T05:46:20;94580.38;;;3.88;76.62
56831;BME280;42713;42.676;23.352;2023-11-21T05:48:47;94578.41;;;3.83;77.31
56831;BME280;42713;42.676;23.352;2023-11-21T05:51:16;94579.38;;;3.82;77.20
56831;BME280;42713;42.676;23.352;2023-11-21T05:53:42;94565.06;;;3.80;77.50
56831;BME280;42713;42.676;23.352;2023-11-21T05:56:08;94559.50;;;3.76;77.63
56831;BME280;42713;42.676;23.352;2023-11-21T05:58:33;94559.31;;;3.71;77.69
56831;BME280;42713;42.676;23.352;2023-11-21T06:00:59;94571.84;;;3.74;78.50
56831;BME280;42713;42.676;23.352;2023-11-21T06:03:24;94566.09;;;3.72;77.87
56831;BME280;42713;42.676;23.352;2023-11-21T06:05:50;94565.88;;;3.73;78.39
56831;BME280;42713;42.676;23.352;2023-11-21T06:08:15;94569.06;;;3.76;78.41
56831;BME280;42713;42.676;23.352;2023-11-21T06:10:42;94571.22;;;3.79;78.22
56831;BME280;42713;42.676;23.352;2023-11-21T06:13:09;94559.31;;;3.71;78.21
56831;BME280;42713;42.676;23.352;2023-11-21T06:15:36;94574.81;;;3.78;78.08
56831;BME280;42713;42.676;23.352;2023-11-21T06:18:05;94582.81;;;3.76;78.09
56831;BME280;42713;42.676;23.352;2023-11-21T06:20:36;94580.00;;;3.78;78.39
56831;BME280;42713;42.676;23.352;2023-11-21T06:23:02;94591.16;;;3.85;78.34
56831;BME280;42713;42.676;23.352;2023-11-21T06:25:29;94581.78;;;3.84;78.22
56831;BME280;42713;42.676;23.352;2023-11-21T06:27:54;94583.41;;;3.85;78.32
56831;BME280;42713;42.676;23.352;2023-11-21T06:30:21;94585.56;;;3.88;78.32
56831;BME280;42713;42.676;23.352;2023-11-21T06:32:48;94595.53;;;3.91;78.37
56831;BME280;42713;42.676;23.352;2023-11-21T06:35:15;94581.97;;;3.96;78.87
56831;BME280;42713;42.676;23.352;2023-11-21T06:37:44;94599.09;;;3.97;78.39
56831;BME280;42713;42.676;23.352;2023-11-21T06:42:53;94581.97;;;3.96;78.96
56831;BME280;42713;42.676;23.352;2023-11-21T06:48:15;94594.25;;;4.20;78.51
56831;BME280;42713;42.676;23.352;2023-11-21T06:51:02;94597.41;;;4.23;78.29
56831;BME280;42713;42.676;23.352;2023-11-21T07:00:37;94591.19;;;4.37;78.68
56831;BME280;42713;42.676;23.352;2023-11-21T07:03:42;94597.13;;;4.44;78.72
56831;BME280;42713;42.676;23.352;2023-11-21T07:06:32;94606.25;;;4.60;79.04
56831;BME280;42713;42.676;23.352;2023-11-21T07:09:51;94580.72;;;4.57;80.23
56831;BME280;42713;42.676;23.352;2023-11-21T07:12:30;94575.09;;;4.67;79.24
56831;BME280;42713;42.676;23.352;2023-11-21T07:14:59;94594.53;;;4.90;77.96
56831;BME280;42713;42.676;23.352;2023-11-21T07:17:50;94586.47;;;4.98;77.36
56831;BME280;42713;42.676;23.352;2023-11-21T07:24:03;94573.13;;;4.94;76.42
56831;BME280;42713;42.676;23.352;2023-11-21T07:42:16;94573.06;;;5.26;75.09
56831;BME280;42713;42.676;23.352;2023-11-21T07:49:57;94596.69;;;5.69;74.92
56831;BME280;42713;42.676;23.352;2023-11-21T07:55:38;94569.34;;;5.66;73.92
56831;BME280;42713;42.676;23.352;2023-11-21T07:58:13;94566.88;;;5.71;74.19
56831;BME280;42713;42.676;23.352;2023-11-21T08:00:42;94557.66;;;5.75;74.42
56831;BME280;42713;42.676;23.352;2023-11-21T08:03:49;94561.69;;;5.90;73.93
56831;BME280;42713;42.676;23.352;2023-11-21T08:10:19;94549.00;;;6.00;73.66
56831;BME280;42713;42.676;23.352;2023-11-21T08:17:19;94540.84;;;6.15;72.03
56831;BME280;42713;42.676;23.352;2023-11-21T08:20:03;94554.00;;;6.20;71.89
56831;BME280;42713;42.676;23.352;2023-11-21T08:31:01;94547.03;;;6.51;73.22
56831;BME280;42713;42.676;23.352;2023-11-21T08:37:23;94549.59;;;6.82;71.74
56831;BME280;42713;42.676;23.352;2023-11-21T08:39:49;94573.31;;;7.04;71.57
56831;BME280;42713;42.676;23.352;2023-11-21T08:42:14;94564.72;;;7.15;71.30
56831;BME280;42713;42.676;23.352;2023-11-21T08:44:40;94558.94;;;7.25;70.49
56831;BME280;42713;42.676;23.352;2023-11-21T08:47:06;94561.78;;;7.24;69.98
56831;BME280;42713;42.676;23.352;2023-11-21T08:49:32;94568.00;;;7.23;68.80
56831;BME280;42713;42.676;23.352;2023-11-21T08:51:58;94560.19;;;7.23;69.37
56831;BME280;42713;42.676;23.352;2023-11-21T08:54:26;94546.28;;;7.29;69.12
56831;BME280;42713;42.676;23.352;2023-11-21T08:56:53;94558.06;;;7.20;69.05
56831;BME280;42713;42.676;23.352;2023-11-21T08:59:26;94546.97;;;7.24;69.55
56831;BME280;42713;42.676;23.352;2023-11-21T09:01:58;94544.47;;;7.29;68.57
56831;BME280;42713;42.676;23.352;2023-11-21T09:04:47;94524.97;;;7.20;68.73
56831;BME280;42713;42.676;23.352;2023-11-21T09:10:20;94506.63;;;7.27;68.74
56831;BME280;42713;42.676;23.352;2023-11-21T09:12:46;94506.19;;;7.42;68.50
56831;BME280;42713;42.676;23.352;2023-11-21T09:15:11;94499.59;;;7.51;68.96
56831;BME280;42713;42.676;23.352;2023-11-21T09:17:37;94488.50;;;7.56;68.38
56831;BME280;42713;42.676;23.352;2023-11-21T09:20:03;94484.88;;;7.57;67.85
56831;BME280;42713;42.676;23.352;2023-11-21T09:22:31;94495.97;;;7.64;67.69
56831;BME280;42713;42.676;23.352;2023-11-21T09:25:01;94497.09;;;7.68;67.87
56831;BME280;42713;42.676;23.352;2023-11-21T09:27:37;94487.91;;;7.77;67.67
56831;BME280;42713;42.676;23.352;2023-11-21T09:30:13;94474.97;;;7.83;67.87
56831;BME280;42713;42.676;23.352;2023-11-21T09:32:40;94464.41;;;7.89;67.59
56831;BME280;42713;42.676;23.352;2023-11-21T09:35:06;94452.50;;;7.93;67.69
56831;BME280;42713;42.676;23.352;2023-11-21T09:37:33;94445.53;;;7.99;67.63
56831;BME280;42713;42.676;23.352;2023-11-21T09:39:59;94436.69;;;8.00;67.42
56831;BME280;42713;42.676;23.352;2023-11-21T09:42:32;94426.59;;;8.04;67.40
56831;BME280;42713;42.676;23.352;2023-11-21T09:49:11;94419.28;;;8.18;67.02
56831;BME280;42713;42.676;23.352;2023-11-21T09:51:43;94407.03;;;8.18;68.57
56831;BME280;42713;42.676;23.352;2023-11-21T09:54:10;94396.66;;;8.23;67.49
56831;BME280;42713;42.676;23.352;2023-11-21T09:56:39;94398.28;;;8.41;67.61
56831;BME280;42713;42.676;23.352;2023-11-21T09:59:05;94392.53;;;8.56;67.81
56831;BME280;42713;42.676;23.352;2023-11-21T10:01:33;94392.44;;;8.68;66.87
56831;BME280;42713;42.676;23.352;2023-11-21T10:04:04;94378.38;;;8.69;65.34
56831;BME280;42713;42.676;23.352;2023-11-21T10:06:38;94388.66;;;8.76;65.14
56831;BME280;42713;42.676;23.352;2023-11-21T10:09:04;94377.25;;;8.82;64.47
56831;BME280;42713;42.676;23.352;2023-11-21T10:11:43;94382.88;;;8.91;64.49
56831;BME280;42713;42.676;23.352;2023-11-21T10:14:10;94391.31;;;8.98;63.96
56831;BME280;42713;42.676;23.352;2023-11-21T10:19:52;94376.03;;;9.07;63.16
56831;BME280;42713;42.676;23.352;2023-11-21T10:22:27;94359.81;;;9.05;63.13
56831;BME280;42713;42.676;23.352;2023-11-21T10:24:58;94360.56;;;9.23;62.60
56831;BME280;42713;42.676;23.352;2023-11-21T10:27:32;94354.59;;;9.27;62.34
56831;BME280;42713;42.676;23.352;2023-11-21T10:30:14;94343.97;;;9.34;61.78
56831;BME280;42713;42.676;23.352;2023-11-21T10:32:58;94339.84;;;9.38;61.36
56831;BME280;42713;42.676;23.352;2023-11-21T10:35:49;94342.28;;;9.45;60.57
56831;BME280;42713;42.676;23.352;2023-11-21T10:38:24;94353.88;;;9.54;60.70
56831;BME280;42713;42.676;23.352;2023-11-21T10:43:35;94334.47;;;9.50;60.61
56831;BME280;42713;42.676;23.352;2023-11-21T10:47:10;94341.34;;;9.56;60.49
56831;BME280;42713;42.676;23.352;2023-11-21T10:49:43;94326.38;;;9.52;60.48
56831;BME280;42713;42.676;23.352;2023-11-21T10:52:15;94338.00;;;9.61;61.37
56831;BME280;42713;42.676;23.352;2023-11-21T11:02:36;94324.28;;;9.48;59.52
56831;BME280;42713;42.676;23.352;2023-11-21T11:08:58;94319.91;;;9.54;59.67
56831;BME280;42713;42.676;23.352;2023-11-21T11:11:30;94297.50;;;9.41;59.60
56831;BME280;42713;42.676;23.352;2023-11-21T11:18:43;94307.00;;;9.47;58.81
56831;BME280;42713;42.676;23.352;2023-11-21T11:38:44;94280.34;;;9.73;60.32
56831;BME280;42713;42.676;23.352;2023-11-21T11:42:25;94266.06;;;9.58;60.01
56831;BME280;42713;42.676;23.352;2023-11-21T11:45:57;94273.44;;;9.61;59.25
56831;BME280;42713;42.676;23.352;2023-11-21T11:52:34;94298.31;;;9.42;61.99
56831;BME280;42713;42.676;23.352;2023-11-21T12:02:52;94264.28;;;9.37;62.77
56831;BME280;42713;42.676;23.352;2023-11-21T12:05:51;94263.25;;;9.38;62.31
56831;BME280;42713;42.676;23.352;2023-11-21T12:08:57;94266.78;;;9.26;62.72
56831;BME280;42713;42.676;23.352;2023-11-21T12:24:21;94270.94;;;9.00;66.55
56831;BME280;42713;42.676;23.352;2023-11-21T12:27:36;94276.63;;;8.97;67.61
56831;BME280;42713;42.676;23.352;2023-11-21T12:36:57;94284.34;;;8.86;72.60
56831;BME280;42713;42.676;23.352;2023-11-21T12:40:25;94277.63;;;8.91;72.80
56831;BME280;42713;42.676;23.352;2023-11-21T12:43:24;94273.16;;;8.91;73.58
56831;BME280;42713;42.676;23.352;2023-11-21T12:54:20;94241.22;;;8.62;72.86
56831;BME280;42713;42.676;23.352;2023-11-21T13:03:46;94246.03;;;8.92;75.71
56831;BME280;42713;42.676;23.352;2023-11-21T13:06:45;94232.38;;;8.85;75.48
56831;BME280;42713;42.676;23.352;2023-11-21T13:15:55;94246.69;;;9.05;74.11
56831;BME280;42713;42.676;23.352;2023-11-21T13:18:34;94237.75;;;9.00;71.96
56831;BME280;42713;42.676;23.352;2023-11-21T13:21:04;94243.53;;;9.02;71.07
56831;BME280;42713;42.676;23.352;2023-11-21T13:33:27;94230.53;;;9.08;75.18
56831;BME280;42713;42.676;23.352;2023-11-21T13:36:19;94216.59;;;9.02;74.91
56831;BME280;42713;42.676;23.352;2023-11-21T13:42:15;94217.72;;;9.06;74.03
56831;BME280;42713;42.676;23.352;2023-11-21T13:44:57;94213.59;;;9.10;71.75
56831;BME280;42713;42.676;23.352;2023-11-21T13:47:43;94220.44;;;9.16;72.35
56831;BME280;42713;42.676;23.352;2023-11-21T13:50:25;94207.38;;;9.16;74.03
56831;BME280;42713;42.676;23.352;2023-11-21T13:53:17;94196.50;;;9.02;73.54
56831;BME280;42713;42.676;23.352;2023-11-21T13:56:23;94190.25;;;9.03;71.59
56831;BME280;42713;42.676;23.352;2023-11-21T13:59:21;94212.34;;;9.18;71.88
56831;BME280;42713;42.676;23.352;2023-11-21T14:01:55;94188.72;;;9.08;72.05
56831;BME280;42713;42.676;23.352;2023-11-21T14:04:48;94185.88;;;9.09;71.98
56831;BME280;42713;42.676;23.352;2023-11-21T14:07:26;94204.56;;;9.23;71.56
56831;BME280;42713;42.676;23.352;2023-11-21T14:09:57;94200.66;;;9.26;71.51
56831;BME280;42713;42.676;23.352;2023-11-21T14:12:24;94191.69;;;9.16;71.47
56831;BME280;42713;42.676;23.352;2023-11-21T14:14:49;94204.03;;;9.21;71.84
56831;BME280;42713;42.676;23.352;2023-11-21T14:17:18;94201.38;;;9.16;72.66
56831;BME280;42713;42.676;23.352;2023-11-21T14:21:08;94201.03;;;9.12;72.64
56831;BME280;42713;42.676;23.352;2023-11-21T14:24:12;94218.41;;;9.24;73.42
56831;BME280;42713;42.676;23.352;2023-11-21T14:30:56;94210.72;;;9.12;72.90
56831;BME280;42713;42.676;23.352;2023-11-21T14:33:51;94192.63;;;9.05;72.94
56831;BME280;42713;42.676;23.352;2023-11-21T14:43:55;94197.25;;;8.98;71.86
56831;BME280;42713;42.676;23.352;2023-11-21T15:07:20;94211.38;;;9.02;74.81
56831;BME280;42713;42.676;23.352;2023-11-21T15:09:46;94212.19;;;9.02;74.73
56831;BME280;42713;42.676;23.352;2023-11-21T15:12:12;94192.88;;;9.03;74.45
56831;BME280;42713;42.676;23.352;2023-11-21T15:14:46;94196.50;;;9.02;74.57
56831;BME280;42713;42.676;23.352;2023-11-21T15:17:14;94209.31;;;9.04;74.16
56831;BME280;42713;42.676;23.352;2023-11-21T15:19:55;94202.50;;;9.03;74.36
56831;BME280;42713;42.676;23.352;2023-11-21T15:22:21;94181.88;;;9.01;75.15
56831;BME280;42713;42.676;23.352;2023-11-21T15:24:47;94191.59;;;9.06;75.04
56831;BME280;42713;42.676;23.352;2023-11-21T15:42:09;94195.66;;;8.97;74.37
56831;BME280;42713;42.676;23.352;2023-11-21T15:52:54;94170.44;;;8.80;75.92
56831;BME280;42713;42.676;23.352;2023-11-21T15:58:48;94148.03;;;8.62;75.86
56831;BME280;42713;42.676;23.352;2023-11-21T16:04:25;94155.59;;;8.64;76.54
56831;BME280;42713;42.676;23.352;2023-11-21T16:07:00;94154.75;;;8.58;76.70
56831;BME280;42713;42.676;23.352;2023-11-21T16:09:33;94178.88;;;8.65;75.80
56831;BME280;42713;42.676;23.352;2023-11-21T16:12:26;94152.09;;;8.53;76.47
56831;BME280;42713;42.676;23.352;2023-11-21T16:23:08;94152.38;;;8.56;77.03
56831;BME280;42713;42.676;23.352;2023-11-21T16:25:53;94132.72;;;8.49;76.92
56831;BME280;42713;42.676;23.352;2023-11-21T16:43:41;94128.94;;;8.39;76.94
56831;BME280;42713;42.676;23.352;2023-11-21T16:51:59;94127.91;;;8.40;77.32
56831;BME280;42713;42.676;23.352;2023-11-21T16:54:27;94133.63;;;8.37;76.34
56831;BME280;42713;42.676;23.352;2023-11-21T16:57:00;94132.03;;;8.36;76.72
56831;BME280;42713;42.676;23.352;2023-11-21T16:59:27;94125.78;;;8.37;76.75
56831;BME280;42713;42.676;23.352;2023-11-21T17:01:55;94130.69;;;8.34;77.07
56831;BME280;42713;42.676;23.352;2023-11-21T17:04:21;94133.53;;;8.32;76.57
56831;BME280;42713;42.676;23.352;2023-11-21T17:06:48;94130.94;;;8.32;76.46
56831;BME280;42713;42.676;23.352;2023-11-21T17:09:13;94130.31;;;8.25;76.35
56831;BME280;42713;42.676;23.352;2023-11-21T17:11:46;94125.28;;;8.18;77.27
56831;BME280;42713;42.676;23.352;2023-11-21T17:14:11;94136.69;;;8.12;77.01
56831;BME280;42713;42.676;23.352;2023-11-21T17:16:37;94137.72;;;8.11;77.29
56831;BME280;42713;42.676;23.352;2023-11-21T17:19:05;94127.03;;;8.13;77.44
56831;BME280;42713;42.676;23.352;2023-11-21T17:21:31;94131.94;;;8.09;77.70
56831;BME280;42713;42.676;23.352;2023-11-21T17:23:57;94120.34;;;8.00;77.84
56831;BME280;42713;42.676;23.352;2023-11-21T17:26:23;94121.94;;;8.01;77.36
56831;BME280;42713;42.676;23.352;2023-11-21T17:28:49;94135.03;;;7.89;78.29
56831;BME280;42713;42.676;23.352;2023-11-21T17:31:36;94125.91;;;7.86;78.45
56831;BME280;42713;42.676;23.352;2023-11-21T17:34:02;94123.53;;;7.85;78.24
56831;BME280;42713;42.676;23.352;2023-11-21T17:36:27;94124.09;;;7.87;77.83
56831;BME280;42713;42.676;23.352;2023-11-21T17:38:53;94102.72;;;7.90;76.60
56831;BME280;42713;42.676;23.352;2023-11-21T17:41:22;94119.75;;;7.92;77.90
56831;BME280;42713;42.676;23.352;2023-11-21T17:43:48;94111.91;;;7.92;77.04
56831;BME280;42713;42.676;23.352;2023-11-21T17:46:23;94124.22;;;7.97;76.70
56831;BME280;42713;42.676;23.352;2023-11-21T17:48:49;94126.91;;;8.02;77.66